LiveATC.Net - Listen to live air traffic control over the Internet!


ICAO: KPOU  IATA: POU   Airport: Dutchess County Airport
City: Poughkeepsie   State/Province: New York
Country: United States   Continent: North America
KPOU METAR Weather: KPOU 020053Z 29004KT 10SM CLR M02/M13 A3026 RMK AO2 SLP246 T10221133 $
KPOU ADS-B Flight Tracking  (ADSBExchange)
KPOU Flight Activity (FlightAware)
KPOU Airport Info   (iFlightPlanner)
KPOU VFR Sectional Chart   (iFlightPlanner) 
KPOU IFR Low Altitude Chart   (iFlightPlanner) 
KPOU IFR High Altitude Chart   (iFlightPlanner) 

KPOU Ground/Tower
Feed Status: UP   Listeners: 0
Listen in your browser - HTML5 player (in browser, HTML5)
Click here to listen with your own player (launches your MP3 player)
Archive Access: KPOU Ground/Tower
FacilityFrequency
Dutchess County Ground121.800
Dutchess County Tower124.000

NOTICE

Unauthorized use prohibited. See LiveATC.net Terms of Service


Airport/ARTCC Code
Frequency Search
(e.g., 124.400, 128.75)
Site-wide search
 


Browse Feeds
Top 50 Feeds
HF Oceanic Feeds
Coverage Map
Bad Weather Areas

LiveATC FAQ
Offer LiveATC feed
Contact LiveATC.net
Press Inquiries

LiveATC on iPhone
LiveATC on Android

LiveATC Mobile
(Mobile browser)

ATC Audio Archives
Interesting Recordings

LiveATC Forums


Home Page
About LiveATC.net


Terms of Use
Privacy Policy

AIRMETs/SIGMETs

FAA Airport Status
NAS Status
Arrival Demand


Server Software By:
Icecast.org
Liquidsoap